createdAt,value
2022-12-13T00:01:46.384Z,21.48
2022-12-13T00:04:13.755Z,20.35
2022-12-13T00:06:40.321Z,21.95
2022-12-13T00:09:07.967Z,22.13
2022-12-13T00:11:34.744Z,23.80
2022-12-13T00:14:01.896Z,24.42
2022-12-13T00:16:28.493Z,23.70
2022-12-13T00:18:58.569Z,20.00
2022-12-13T00:21:28.985Z,21.83
2022-12-13T00:23:56.078Z,22.73
2022-12-13T00:26:25.938Z,21.83
2022-12-13T00:28:54.152Z,21.40
2022-12-13T00:34:10.009Z,20.98
2022-12-13T00:36:36.408Z,20.33
2022-12-13T00:39:02.979Z,22.23
2022-12-13T00:41:32.878Z,23.67
2022-12-13T00:44:00.046Z,21.95
2022-12-13T00:46:27.631Z,23.38
2022-12-13T00:48:59.806Z,25.35
2022-12-13T00:51:27.939Z,28.58
2022-12-13T00:53:54.767Z,31.55
2022-12-13T00:56:23.509Z,23.95
2022-12-13T00:58:52.367Z,45.88
2022-12-13T01:01:22.331Z,80.43
2022-12-13T01:03:48.745Z,30.00
2022-12-13T01:06:19.368Z,33.65
2022-12-13T01:08:46.582Z,66.50
2022-12-13T01:11:14.394Z,29.52
2022-12-13T01:13:41.356Z,62.13
2022-12-13T01:16:09.955Z,67.82
2022-12-13T01:18:36.995Z,169.77
2022-12-13T01:21:07.077Z,170.88
2022-12-13T01:23:34.323Z,187.80
2022-12-13T01:26:09.539Z,155.23
2022-12-13T01:28:36.321Z,24.23
2022-12-13T01:31:13.048Z,26.23
2022-12-13T01:33:40.442Z,25.88
2022-12-13T01:36:09.806Z,25.05
2022-12-13T01:38:38.104Z,23.63
2022-12-13T01:41:16.984Z,22.13
2022-12-13T01:43:44.693Z,23.02
2022-12-13T01:46:12.558Z,18.67
2022-12-13T01:49:02.334Z,20.02
2022-12-13T01:51:38.789Z,20.55
2022-12-13T01:54:09.295Z,22.50
2022-12-13T01:56:43.513Z,20.70
2022-12-13T01:59:11.581Z,23.30
2022-12-13T02:01:39.599Z,20.27
2022-12-13T02:04:07.399Z,23.85
2022-12-13T02:06:41.748Z,21.48
2022-12-13T02:09:09.014Z,21.48
2022-12-13T02:11:38.885Z,22.40
2022-12-13T02:14:05.599Z,22.48
2022-12-13T02:16:56.715Z,19.60
2022-12-13T02:19:46.382Z,24.85
2022-12-13T02:22:25.756Z,19.95
2022-12-13T02:25:16.497Z,25.63
2022-12-13T02:28:31.186Z,22.77
2022-12-13T02:30:57.031Z,20.60
2022-12-13T02:33:37.822Z,21.38
2022-12-13T02:36:26.133Z,21.05
2022-12-13T02:39:05.573Z,20.55
2022-12-13T02:41:37.708Z,21.65
2022-12-13T02:44:22.295Z,20.85
2022-12-13T02:46:56.707Z,20.13
2022-12-13T02:49:25.702Z,19.80
2022-12-13T02:51:52.855Z,20.45
2022-12-13T02:54:19.311Z,20.83
2022-12-13T02:56:59.796Z,18.48
2022-12-13T02:59:33.555Z,22.52
2022-12-13T03:02:32.284Z,19.95
2022-12-13T03:05:28.259Z,18.45
2022-12-13T03:08:20.824Z,18.35
2022-12-13T03:11:10.654Z,19.98
2022-12-13T03:13:47.129Z,18.73
2022-12-13T03:16:15.585Z,20.08
2022-12-13T03:18:52.178Z,18.90
2022-12-13T03:21:18.736Z,18.33
2022-12-13T03:23:47.012Z,21.20
2022-12-13T03:26:31.690Z,19.35
2022-12-13T03:28:58.143Z,20.58
2022-12-13T03:31:24.609Z,20.88
2022-12-13T03:33:51.091Z,19.15
2022-12-13T03:36:18.903Z,19.48
2022-12-13T03:38:47.695Z,18.67
2022-12-13T03:41:18.667Z,20.58
2022-12-13T03:43:45.282Z,19.20
2022-12-13T03:46:11.913Z,20.40
2022-12-13T03:48:38.661Z,19.13
2022-12-13T03:51:05.344Z,19.98
2022-12-13T03:53:33.275Z,22.67
2022-12-13T03:56:05.889Z,20.77
2022-12-13T04:01:09.137Z,20.20
2022-12-13T04:03:37.431Z,19.05
2022-12-13T04:06:04.774Z,19.45
2022-12-13T04:08:31.448Z,23.48
2022-12-13T04:10:57.925Z,22.33
2022-12-13T04:13:33.281Z,20.63
2022-12-13T04:16:01.099Z,21.92
2022-12-13T04:18:27.823Z,20.33
2022-12-13T04:20:54.233Z,20.25
2022-12-13T04:23:20.658Z,21.30
2022-12-13T04:25:47.184Z,21.38
2022-12-13T04:28:22.291Z,22.60
2022-12-13T04:30:52.974Z,22.10
2022-12-13T04:33:24.076Z,20.17
2022-12-13T04:35:51.086Z,20.63
2022-12-13T04:38:17.823Z,22.40
2022-12-13T04:40:44.222Z,20.60
2022-12-13T04:43:10.854Z,21.45
2022-12-13T04:45:37.403Z,20.73
2022-12-13T04:48:04.182Z,20.33
2022-12-13T04:50:30.608Z,19.60
2022-12-13T04:52:57.071Z,22.65
2022-12-13T04:55:23.471Z,18.70
2022-12-13T04:57:49.887Z,19.52
2022-12-13T05:00:16.912Z,19.10
2022-12-13T05:02:43.447Z,19.70
2022-12-13T05:05:10.252Z,22.08
2022-12-13T05:07:42.800Z,26.30
2022-12-13T05:10:11.081Z,24.73
2022-12-13T05:12:37.571Z,24.20
2022-12-13T05:15:04.554Z,28.27
2022-12-13T05:17:36.893Z,21.15
2022-12-13T05:20:03.879Z,21.30
2022-12-13T05:22:30.329Z,26.83
2022-12-13T05:24:56.713Z,23.35
2022-12-13T05:27:24.723Z,24.10
2022-12-13T05:29:56.304Z,37.30
2022-12-13T05:32:42.536Z,33.90
2022-12-13T05:35:13.272Z,33.30
2022-12-13T05:37:40.039Z,34.10
2022-12-13T05:40:07.198Z,22.73
2022-12-13T05:42:33.700Z,35.10
2022-12-13T05:45:00.291Z,32.35
2022-12-13T05:47:26.695Z,41.58
2022-12-13T05:49:53.091Z,28.70
2022-12-13T05:52:21.665Z,32.72
2022-12-13T05:55:01.246Z,24.60
2022-12-13T05:57:28.157Z,27.48
2022-12-13T05:59:54.537Z,20.17
2022-12-13T06:02:22.032Z,26.80
2022-12-13T06:04:48.765Z,23.80
2022-12-13T06:07:15.224Z,23.77
2022-12-13T06:09:42.201Z,21.23
2022-12-13T06:12:30.984Z,23.83
2022-12-13T06:15:00.789Z,21.85
2022-12-13T06:20:03.315Z,23.85
2022-12-13T06:22:49.734Z,29.67
2022-12-13T06:25:31.323Z,37.88
2022-12-13T06:28:01.155Z,23.40
2022-12-13T06:30:28.891Z,25.45
2022-12-13T06:32:55.868Z,31.02
2022-12-13T06:35:27.965Z,25.27
2022-12-13T06:38:01.499Z,26.80
2022-12-13T06:40:32.065Z,26.38
2022-12-13T06:42:58.457Z,25.80
2022-12-13T06:45:25.571Z,24.80
2022-12-13T06:47:51.967Z,22.05
2022-12-13T06:50:18.397Z,25.77
2022-12-13T06:52:46.600Z,32.08
2022-12-13T06:55:13.545Z,42.88
2022-12-13T06:57:40.593Z,29.33
2022-12-13T07:00:08.319Z,24.98
2022-12-13T07:02:34.979Z,24.58
2022-12-13T07:05:01.639Z,27.98
2022-12-13T07:07:29.728Z,55.35
2022-12-13T07:09:56.258Z,56.75
2022-12-13T07:12:23.472Z,27.75
2022-12-13T07:14:50.439Z,26.58
2022-12-13T07:17:33.544Z,41.05
2022-12-13T07:20:07.940Z,32.53
2022-12-13T07:22:37.835Z,35.30
2022-12-13T07:25:27.427Z,38.97
2022-12-13T07:28:06.116Z,36.63
2022-12-13T07:30:41.199Z,41.03
2022-12-13T07:33:09.387Z,45.80
2022-12-13T07:35:37.346Z,46.35
2022-12-13T07:38:04.604Z,42.08
2022-12-13T07:40:33.691Z,32.10
2022-12-13T07:43:00.182Z,31.40
2022-12-13T07:45:27.008Z,33.63
2022-12-13T07:47:53.527Z,35.58
2022-12-13T07:50:25.158Z,32.05
2022-12-13T07:52:53.375Z,28.48
2022-12-13T07:55:32.930Z,61.38
2022-12-13T07:58:08.059Z,48.40
2022-12-13T08:00:34.517Z,67.43
2022-12-13T08:03:01.498Z,34.78
2022-12-13T08:05:28.548Z,30.08
2022-12-13T08:07:55.118Z,33.13
2022-12-13T08:10:22.063Z,29.10
2022-12-13T08:12:49.991Z,29.80
2022-12-13T08:15:17.489Z,27.83
2022-12-13T08:17:43.891Z,30.50
2022-12-13T08:20:10.651Z,31.90
2022-12-13T08:22:37.148Z,31.25
2022-12-13T08:25:04.364Z,31.90
2022-12-13T08:27:30.779Z,31.08
2022-12-13T08:30:22.853Z,29.00
2022-12-13T08:32:50.858Z,32.17
2022-12-13T08:35:22.326Z,33.65
2022-12-13T08:37:48.856Z,28.27
2022-12-13T08:40:15.248Z,30.90
2022-12-13T08:42:41.652Z,30.65
2022-12-13T08:45:08.728Z,30.33
2022-12-13T08:47:41.302Z,34.45
2022-12-13T08:50:08.436Z,30.20
2022-12-13T08:52:40.257Z,28.98
2022-12-13T08:55:14.579Z,29.33
2022-12-13T08:57:42.463Z,36.15
2022-12-13T09:00:16.327Z,29.30
2022-12-13T09:02:43.175Z,28.30
2022-12-13T09:05:12.460Z,30.27
2022-12-13T09:07:42.955Z,30.80
2022-12-13T09:10:26.607Z,28.70
2022-12-13T09:13:01.938Z,33.03
2022-12-13T09:15:34.552Z,30.35
2022-12-13T09:18:05.149Z,28.08
2022-12-13T09:20:40.516Z,29.50
2022-12-13T09:23:22.871Z,26.77
2022-12-13T09:25:55.777Z,30.23
2022-12-13T09:30:49.853Z,27.13
2022-12-13T09:33:17.689Z,29.35
2022-12-13T09:35:55.677Z,29.55
2022-12-13T09:38:22.110Z,30.60
2022-12-13T09:40:58.367Z,27.83
2022-12-13T09:43:32.515Z,28.10
2022-12-13T09:46:13.349Z,30.20
2022-12-13T09:48:52.323Z,35.22
2022-12-13T09:51:28.796Z,37.47
2022-12-13T09:54:05.303Z,32.13
2022-12-13T09:56:33.008Z,30.98
2022-12-13T09:58:59.458Z,30.35
2022-12-13T10:01:26.041Z,27.10
2022-12-13T10:03:55.807Z,28.25
2022-12-13T10:06:24.272Z,29.40
2022-12-13T10:08:58.473Z,27.98
2022-12-13T10:11:31.723Z,27.67
2022-12-13T10:14:17.056Z,29.65
2022-12-13T10:16:48.906Z,26.10
2022-12-13T10:19:29.251Z,29.65
2022-12-13T10:22:01.503Z,30.80
2022-12-13T10:24:47.585Z,31.75
2022-12-13T10:27:17.908Z,31.23
2022-12-13T10:30:15.456Z,31.10
2022-12-13T10:32:48.031Z,33.10
2022-12-13T10:35:35.259Z,33.00
2022-12-13T10:38:22.412Z,34.20
2022-12-13T10:40:58.266Z,30.90
2022-12-13T10:43:28.083Z,43.33
2022-12-13T10:45:59.528Z,52.75
2022-12-13T10:48:31.886Z,32.55
2022-12-13T10:51:09.356Z,29.65
2022-12-13T10:53:47.538Z,30.27
2022-12-13T10:56:23.223Z,32.92
2022-12-13T10:59:16.928Z,27.35
2022-12-13T11:01:44.662Z,28.48
2022-12-13T11:04:28.373Z,30.02
2022-12-13T11:06:57.495Z,27.52
2022-12-13T11:09:38.309Z,30.00
2022-12-13T11:14:48.557Z,25.55
2022-12-13T11:17:20.827Z,28.15
2022-12-13T11:19:52.265Z,29.13
2022-12-13T11:22:27.014Z,30.50
2022-12-13T11:25:07.864Z,31.60
2022-12-13T11:28:26.864Z,30.10
2022-12-13T11:31:15.875Z,28.92
2022-12-13T11:34:04.409Z,29.92
2022-12-13T11:36:42.206Z,29.33
2022-12-13T11:39:17.787Z,32.03
2022-12-13T11:42:01.228Z,30.83
2022-12-13T11:44:34.389Z,29.83
2022-12-13T11:47:01.926Z,32.67
2022-12-13T11:49:43.794Z,34.10
2022-12-13T11:53:26.584Z,33.35
2022-12-13T11:56:34.020Z,28.42
2022-12-13T11:59:19.118Z,38.03
2022-12-13T12:02:04.983Z,32.17
2022-12-13T12:04:39.972Z,29.42
2022-12-13T12:07:32.490Z,27.25
2022-12-13T12:10:14.024Z,34.38
2022-12-13T12:12:45.803Z,26.87
2022-12-13T12:15:18.815Z,30.17
2022-12-13T12:17:54.900Z,28.20
2022-12-13T12:20:46.068Z,28.02
2022-12-13T12:23:35.485Z,24.95
2022-12-13T12:26:13.800Z,24.35
2022-12-13T12:29:01.401Z,25.88
2022-12-13T12:31:50.665Z,23.70
2022-12-13T12:34:37.258Z,24.52
2022-12-13T12:37:39.928Z,26.98
2022-12-13T12:40:52.165Z,28.65
2022-12-13T12:43:37.733Z,30.15
2022-12-13T12:46:07.350Z,27.80
2022-12-13T12:49:19.366Z,28.00
2022-12-13T12:52:04.574Z,26.27
2022-12-13T12:54:33.915Z,23.27
2022-12-13T12:57:20.845Z,32.53
2022-12-13T12:59:50.045Z,30.05
2022-12-13T13:02:25.791Z,34.80
2022-12-13T13:05:00.451Z,29.90
2022-12-13T13:07:39.799Z,39.72
2022-12-13T13:10:16.729Z,30.83
2022-12-13T13:12:53.329Z,37.88
2022-12-13T13:15:38.593Z,41.05
2022-12-13T13:18:25.420Z,36.45
2022-12-13T13:21:33.546Z,42.30
2022-12-13T13:24:09.048Z,38.65
2022-12-13T13:26:42.709Z,28.85
2022-12-13T13:29:27.068Z,29.38
2022-12-13T13:32:02.267Z,33.90
2022-12-13T13:34:34.945Z,31.60
2022-12-13T13:37:03.676Z,40.28
2022-12-13T13:39:33.808Z,73.43
2022-12-13T13:42:15.137Z,49.45
2022-12-13T13:44:54.198Z,31.25
2022-12-13T13:47:20.713Z,27.10
2022-12-13T13:50:03.686Z,36.72
2022-12-13T13:52:46.027Z,27.90
2022-12-13T13:55:53.020Z,36.15
2022-12-13T13:59:01.314Z,28.95
2022-12-13T14:01:30.739Z,27.60
2022-12-13T14:04:38.026Z,28.02
2022-12-13T14:07:41.712Z,27.60
2022-12-13T14:10:17.342Z,36.92
2022-12-13T14:13:28.215Z,28.63
2022-12-13T14:16:33.749Z,28.90
2022-12-13T14:19:45.838Z,27.92
2022-12-13T14:27:43.052Z,28.10
2022-12-13T14:30:26.952Z,29.83
2022-12-13T14:32:55.484Z,30.77
2022-12-13T14:35:30.433Z,29.65
2022-12-13T14:38:02.891Z,29.55
2022-12-13T14:40:35.349Z,29.33
2022-12-13T14:43:02.330Z,26.88
2022-12-13T14:45:34.968Z,26.17
2022-12-13T14:48:05.782Z,25.20
2022-12-13T14:50:34.896Z,30.95
2022-12-13T14:53:04.947Z,29.70
2022-12-13T14:55:37.245Z,29.60
2022-12-13T14:58:16.927Z,30.63
2022-12-13T15:00:43.660Z,27.52
2022-12-13T15:03:21.769Z,27.98
2022-12-13T15:05:54.330Z,45.20
2022-12-13T15:08:21.527Z,42.42
2022-12-13T15:10:51.423Z,42.58
2022-12-13T15:13:51.196Z,48.88
2022-12-13T15:16:28.920Z,40.97
2022-12-13T15:19:30.894Z,32.30
2022-12-13T15:22:02.695Z,41.50
2022-12-13T15:24:40.625Z,45.35
2022-12-13T15:27:08.442Z,41.03
2022-12-13T15:29:36.974Z,27.20
2022-12-13T15:32:04.109Z,22.75
2022-12-13T15:34:35.203Z,21.10
2022-12-13T15:37:28.145Z,24.25
2022-12-13T15:40:00.627Z,31.30
2022-12-13T15:42:33.643Z,25.63
2022-12-13T15:45:02.906Z,20.58
2022-12-13T15:47:29.637Z,31.45
2022-12-13T15:50:05.497Z,20.80
2022-12-13T15:52:39.919Z,21.15
2022-12-13T15:55:09.206Z,53.58
2022-12-13T15:57:51.880Z,32.92
2022-12-13T16:00:18.620Z,22.75
2022-12-13T16:03:14.937Z,21.55
2022-12-13T16:05:50.381Z,21.30
2022-12-13T16:09:33.052Z,21.95
2022-12-13T16:12:03.525Z,20.55
2022-12-13T16:14:32.949Z,21.27
2022-12-13T16:18:06.493Z,21.38
2022-12-13T16:20:32.983Z,23.90
2022-12-13T16:22:59.937Z,28.63
2022-12-13T16:25:26.709Z,23.17
2022-12-13T16:27:53.125Z,19.58
2022-12-13T16:30:27.755Z,23.83
2022-12-13T16:33:18.002Z,20.42
2022-12-13T16:35:40.895Z,27.27
2022-12-13T16:38:10.948Z,28.55
2022-12-13T16:40:55.739Z,24.60
2022-12-13T16:43:31.234Z,23.73
2022-12-13T16:47:17.184Z,30.50
2022-12-13T16:48:50.300Z,27.42
2022-12-13T16:51:16.736Z,29.40
2022-12-13T16:53:43.742Z,26.98
2022-12-13T16:56:11.445Z,27.02
2022-12-13T16:58:38.049Z,28.08
2022-12-13T17:01:12.117Z,26.17
2022-12-13T17:03:39.104Z,27.27
2022-12-13T17:06:12.522Z,28.17
2022-12-13T17:08:38.943Z,24.65
2022-12-13T17:11:06.864Z,28.05
2022-12-13T17:13:33.380Z,26.73
2022-12-13T17:16:00.113Z,26.75
2022-12-13T17:18:26.582Z,23.38
2022-12-13T17:20:53.825Z,25.50
2022-12-13T17:23:25.904Z,25.65
2022-12-13T17:25:58.087Z,24.90
2022-12-13T17:28:25.606Z,25.85
2022-12-13T17:30:54.874Z,27.48
2022-12-13T17:33:22.052Z,23.48
2022-12-13T17:35:48.615Z,22.77
2022-12-13T17:38:15.000Z,23.98
2022-12-13T17:40:41.670Z,27.20
2022-12-13T17:43:09.476Z,25.02
2022-12-13T17:45:42.728Z,24.55
2022-12-13T17:48:09.173Z,25.50
2022-12-13T17:50:38.092Z,26.98
2022-12-13T17:53:04.588Z,26.63
2022-12-13T17:55:31.998Z,25.42
2022-12-13T17:58:04.147Z,29.70
2022-12-13T18:00:31.092Z,28.23
2022-12-13T18:02:57.828Z,29.92
2022-12-13T18:05:27.096Z,32.20
2022-12-13T18:07:53.528Z,52.25
2022-12-13T18:10:22.544Z,47.78
2022-12-13T18:12:52.822Z,37.72
2022-12-13T18:15:19.316Z,26.92
2022-12-13T18:18:10.847Z,45.20
2022-12-13T18:20:35.619Z,53.35
2022-12-13T18:23:02.065Z,89.55
2022-12-13T18:25:29.513Z,44.75
2022-12-13T18:28:00.640Z,39.22
2022-12-13T18:32:54.488Z,34.17
2022-12-13T18:35:20.886Z,33.25
2022-12-13T18:37:47.287Z,42.42
2022-12-13T18:40:13.700Z,44.13
2022-12-13T18:42:40.216Z,28.98
2022-12-13T18:45:07.053Z,27.98
2022-12-13T18:47:33.478Z,25.88
2022-12-13T18:49:59.891Z,27.60
2022-12-13T18:52:26.283Z,28.33
2022-12-13T18:54:54.493Z,27.60
2022-12-13T18:57:21.694Z,28.98
2022-12-13T18:59:54.601Z,28.42
2022-12-13T19:02:21.808Z,28.67
2022-12-13T19:04:55.018Z,64.32
2022-12-13T19:07:22.239Z,94.55
2022-12-13T19:09:54.430Z,85.93
2022-12-13T19:12:21.964Z,74.53
2022-12-13T19:14:54.565Z,44.33
2022-12-13T19:17:21.699Z,44.28
2022-12-13T19:19:48.355Z,63.60
2022-12-13T19:22:15.857Z,33.97
2022-12-13T19:24:42.402Z,36.15
2022-12-13T19:27:08.849Z,55.78
2022-12-13T19:29:35.323Z,53.10
2022-12-13T19:32:01.888Z,32.15
2022-12-13T19:34:28.296Z,28.98
2022-12-13T19:36:54.794Z,31.05
2022-12-13T19:39:21.231Z,71.10
2022-12-13T19:41:47.892Z,38.95
2022-12-13T19:44:14.323Z,38.33
2022-12-13T19:46:40.867Z,33.60
2022-12-13T19:49:07.371Z,32.63
2022-12-13T19:51:39.282Z,30.73
2022-12-13T19:54:06.731Z,29.00
2022-12-13T19:56:33.183Z,30.48
2022-12-13T19:58:59.720Z,29.85
2022-12-13T20:01:26.215Z,31.42
2022-12-13T20:03:52.752Z,27.98
2022-12-13T20:06:22.091Z,35.60
2022-12-13T20:08:49.307Z,36.22
2022-12-13T20:11:19.920Z,33.78
2022-12-13T20:13:48.579Z,27.30
2022-12-13T20:16:21.179Z,27.75
2022-12-13T20:18:48.709Z,29.48
2022-12-13T20:21:15.761Z,28.98
2022-12-13T20:23:49.077Z,28.73
2022-12-13T20:26:18.296Z,31.15
2022-12-13T20:28:44.715Z,38.22
2022-12-13T20:31:14.348Z,61.10
2022-12-13T20:33:42.407Z,44.35
2022-12-13T20:36:24.326Z,51.97
2022-12-13T20:38:52.973Z,61.58
2022-12-13T20:41:19.403Z,113.60
2022-12-13T20:43:48.608Z,147.50
2022-12-13T20:46:15.489Z,42.58
2022-12-13T20:48:44.532Z,29.55
2022-12-13T20:51:14.538Z,31.75
2022-12-13T20:53:42.810Z,28.35
2022-12-13T20:56:13.838Z,30.05
2022-12-13T20:58:41.853Z,49.90
2022-12-13T21:01:15.864Z,30.35
2022-12-13T21:03:42.560Z,28.63
2022-12-13T21:06:09.053Z,28.45
2022-12-13T21:08:54.675Z,29.65
2022-12-13T21:11:25.070Z,30.15
2022-12-13T21:14:16.755Z,31.83
2022-12-13T21:16:55.501Z,27.98
2022-12-13T21:19:27.719Z,32.28
2022-12-13T21:21:55.604Z,33.65
2022-12-13T21:24:23.992Z,27.75
2022-12-13T21:26:51.316Z,31.00
2022-12-13T21:29:18.291Z,29.35
2022-12-13T21:31:49.019Z,34.00
2022-12-13T21:34:16.948Z,33.08
2022-12-13T21:36:45.315Z,29.80
2022-12-13T21:39:14.535Z,31.23
2022-12-13T21:41:42.074Z,29.60
2022-12-13T21:44:13.539Z,32.83
2022-12-13T21:47:22.272Z,28.40
2022-12-13T21:49:26.750Z,28.38
2022-12-13T21:51:53.148Z,33.15
2022-12-13T21:58:18.961Z,42.47
2022-12-13T22:00:46.077Z,31.40
2022-12-13T22:03:12.472Z,30.45
2022-12-13T22:05:38.864Z,31.23
2022-12-13T22:08:05.342Z,32.97
2022-12-13T22:10:31.798Z,32.50
2022-12-13T22:12:58.278Z,32.70
2022-12-13T22:15:25.083Z,32.05
2022-12-13T22:17:51.619Z,34.75
2022-12-13T22:20:18.138Z,34.92
2022-12-13T22:22:45.280Z,28.85
2022-12-13T22:25:11.743Z,33.45
2022-12-13T22:27:38.161Z,34.58
2022-12-13T22:30:05.210Z,32.42
2022-12-13T22:32:32.578Z,31.00
2022-12-13T22:34:59.587Z,33.15
2022-12-13T22:37:26.252Z,32.28
2022-12-13T22:39:52.728Z,32.95
2022-12-13T22:42:20.213Z,33.38
2022-12-13T22:44:46.703Z,32.95
2022-12-13T22:47:13.138Z,36.05
2022-12-13T22:49:39.974Z,33.72
2022-12-13T22:52:06.436Z,31.45
2022-12-13T22:54:32.819Z,34.03
2022-12-13T22:56:59.228Z,36.72
2022-12-13T22:59:25.753Z,31.50
2022-12-13T23:01:55.416Z,31.45
2022-12-13T23:04:26.303Z,32.60
2022-12-13T23:06:52.714Z,36.30
2022-12-13T23:09:19.150Z,35.35
2022-12-13T23:12:04.007Z,36.00
2022-12-13T23:14:33.057Z,32.47
2022-12-13T23:17:01.288Z,33.85
2022-12-13T23:19:51.015Z,30.17
2022-12-13T23:22:14.686Z,31.15
2022-12-13T23:24:41.102Z,33.42
2022-12-13T23:27:07.562Z,30.95
2022-12-13T23:29:34.073Z,53.08
2022-12-13T23:32:00.454Z,49.00
2022-12-13T23:34:27.446Z,40.80
2022-12-13T23:36:54.081Z,38.33
2022-12-13T23:39:20.527Z,49.53
2022-12-13T23:41:46.947Z,40.88
2022-12-13T23:44:13.403Z,39.92
2022-12-13T23:46:39.819Z,38.97
2022-12-13T23:49:06.640Z,36.22
2022-12-13T23:51:34.666Z,46.72
2022-12-13T23:54:01.497Z,42.55
2022-12-13T23:56:29.228Z,57.10
2022-12-13T23:58:55.781Z,48.40
